sensor_id;sensor_type;location;lat;lon;timestamp;pressure;altitude;pressure_sealevel;temperature;humidity
65756;BME280;52489;47.502;18.940;2022-11-02T00:00:14;98708.28;;;8.56;100.00
65756;BME280;52489;47.502;18.940;2022-11-02T00:01:23;98703.34;;;8.39;100.00
65756;BME280;52489;47.502;18.940;2022-11-02T00:02:26;98708.31;;;8.40;100.00
65756;BME280;52489;47.502;18.940;2022-11-02T00:03:29;98717.19;;;8.45;100.00
65756;BME280;52489;47.502;18.940;2022-11-02T00:04:32;98715.06;;;8.36;100.00
65756;BME280;52489;47.502;18.940;2022-11-02T00:05:35;98712.25;;;8.43;100.00
65756;BME280;52489;47.502;18.940;2022-11-02T00:06:39;98712.50;;;8.47;100.00
65756;BME280;52489;47.502;18.940;2022-11-02T00:07:42;98716.94;;;8.41;100.00
65756;BME280;52489;47.502;18.940;2022-11-02T00:08:46;98720.84;;;8.38;100.00
65756;BME280;52489;47.502;18.940;2022-11-02T00:09:49;98716.38;;;8.54;100.00
65756;BME280;52489;47.502;18.940;2022-11-02T00:10:52;98709.34;;;8.55;100.00
65756;BME280;52489;47.502;18.940;2022-11-02T00:11:55;98709.84;;;8.52;100.00
65756;BME280;52489;47.502;18.940;2022-11-02T00:12:58;98709.31;;;8.65;100.00
65756;BME280;52489;47.502;18.940;2022-11-02T00:14:01;98714.56;;;8.50;100.00
65756;BME280;52489;47.502;18.940;2022-11-02T00:15:04;98723.72;;;8.47;100.00
65756;BME280;52489;47.502;18.940;2022-11-02T00:16:10;98724.72;;;8.56;100.00
65756;BME280;52489;47.502;18.940;2022-11-02T00:17:16;98725.50;;;8.52;100.00
65756;BME280;52489;47.502;18.940;2022-11-02T00:18:19;98720.81;;;8.59;100.00
65756;BME280;52489;47.502;18.940;2022-11-02T00:19:22;98723.44;;;8.54;100.00
65756;BME280;52489;47.502;18.940;2022-11-02T00:20:25;98729.72;;;8.53;100.00
65756;BME280;52489;47.502;18.940;2022-11-02T00:21:28;98731.78;;;8.46;100.00
65756;BME280;52489;47.502;18.940;2022-11-02T00:22:32;98726.06;;;8.43;100.00
65756;BME280;52489;47.502;18.940;2022-11-02T00:23:35;98726.84;;;8.39;100.00
65756;BME280;52489;47.502;18.940;2022-11-02T00:24:38;98721.88;;;8.32;100.00
65756;BME280;52489;47.502;18.940;2022-11-02T00:25:45;98721.88;;;8.48;100.00
65756;BME280;52489;47.502;18.940;2022-11-02T00:26:49;98721.09;;;8.32;100.00
65756;BME280;52489;47.502;18.940;2022-11-02T00:27:52;98717.19;;;8.24;100.00
65756;BME280;52489;47.502;18.940;2022-11-02T00:28:56;98716.41;;;8.29;100.00
65756;BME280;52489;47.502;18.940;2022-11-02T00:30:00;98717.47;;;8.23;100.00
65756;BME280;52489;47.502;18.940;2022-11-02T00:31:04;98707.78;;;8.23;100.00
65756;BME280;52489;47.502;18.940;2022-11-02T00:32:06;98722.41;;;8.29;100.00
65756;BME280;52489;47.502;18.940;2022-11-02T00:33:09;98721.63;;;8.29;100.00
65756;BME280;52489;47.502;18.940;2022-11-02T00:34:12;98723.72;;;8.42;100.00
65756;BME280;52489;47.502;18.940;2022-11-02T00:35:15;98715.63;;;8.38;100.00
65756;BME280;52489;47.502;18.940;2022-11-02T00:36:18;98722.69;;;8.43;100.00
65756;BME280;52489;47.502;18.940;2022-11-02T00:37:21;98722.94;;;8.47;100.00
65756;BME280;52489;47.502;18.940;2022-11-02T00:38:25;98722.69;;;8.43;100.00
65756;BME280;52489;47.502;18.940;2022-11-02T00:39:28;98729.22;;;8.40;100.00
65756;BME280;52489;47.502;18.940;2022-11-02T00:40:31;98729.72;;;8.53;100.00
65756;BME280;52489;47.502;18.940;2022-11-02T00:41:34;98733.63;;;8.55;100.00
65756;BME280;52489;47.502;18.940;2022-11-02T00:42:37;98734.16;;;8.47;100.00
65756;BME280;52489;47.502;18.940;2022-11-02T00:43:40;98731.53;;;8.42;100.00
65756;BME280;52489;47.502;18.940;2022-11-02T00:44:42;98733.34;;;8.36;100.00
65756;BME280;52489;47.502;18.940;2022-11-02T00:45:45;98726.28;;;8.37;100.00
65756;BME280;52489;47.502;18.940;2022-11-02T00:46:48;98727.09;;;8.42;100.00
65756;BME280;52489;47.502;18.940;2022-11-02T00:47:51;98723.44;;;8.49;100.00
65756;BME280;52489;47.502;18.940;2022-11-02T00:48:55;98719.78;;;8.50;100.00
65756;BME280;52489;47.502;18.940;2022-11-02T00:49:58;98704.91;;;8.55;100.00
65756;BME280;52489;47.502;18.940;2022-11-02T00:51:01;98698.66;;;8.46;100.00
65756;BME280;52489;47.502;18.940;2022-11-02T00:52:04;98716.66;;;8.48;100.00
65756;BME280;52489;47.502;18.940;2022-11-02T00:53:07;98707.28;;;8.41;100.00
65756;BME280;52489;47.502;18.940;2022-11-02T00:54:09;98704.91;;;8.50;100.00
65756;BME280;52489;47.502;18.940;2022-11-02T00:55:12;98705.44;;;8.52;100.00
65756;BME280;52489;47.502;18.940;2022-11-02T00:56:17;98700.69;;;8.59;100.00
65756;BME280;52489;47.502;18.940;2022-11-02T00:57:20;98698.09;;;8.59;100.00
65756;BME280;52489;47.502;18.940;2022-11-02T00:58:23;98707.50;;;8.55;100.00
65756;BME280;52489;47.502;18.940;2022-11-02T00:59:26;98708.28;;;8.56;100.00
65756;BME280;52489;47.502;18.940;2022-11-02T01:00:28;98709.59;;;8.58;100.00
65756;BME280;52489;47.502;18.940;2022-11-02T01:01:31;98710.63;;;8.68;100.00
65756;BME280;52489;47.502;18.940;2022-11-02T01:02:36;98709.81;;;8.72;100.00
65756;BME280;52489;47.502;18.940;2022-11-02T01:03:39;98719.50;;;8.61;100.00
65756;BME280;52489;47.502;18.940;2022-11-02T01:04:42;98711.13;;;8.70;100.00
65756;BME280;52489;47.502;18.940;2022-11-02T01:05:45;98717.12;;;8.70;100.00
65756;BME280;52489;47.502;18.940;2022-11-02T01:06:48;98718.44;;;8.62;100.00
65756;BME280;52489;47.502;18.940;2022-11-02T01:07:51;98721.59;;;8.54;100.00
65756;BME280;52489;47.502;18.940;2022-11-02T01:08:54;98718.75;;;8.51;100.00
65756;BME280;52489;47.502;18.940;2022-11-02T01:09:57;98726.84;;;8.44;100.00
65756;BME280;52489;47.502;18.940;2022-11-02T01:11:11;98724.97;;;8.60;100.00
65756;BME280;52489;47.502;18.940;2022-11-02T01:12:15;98709.06;;;8.56;100.00
65756;BME280;52489;47.502;18.940;2022-11-02T01:13:18;98718.47;;;8.57;100.00
65756;BME280;52489;47.502;18.940;2022-11-02T01:14:21;98717.69;;;8.62;100.00
65756;BME280;52489;47.502;18.940;2022-11-02T01:15:28;98719.75;;;8.60;100.00
65756;BME280;52489;47.502;18.940;2022-11-02T01:16:31;98714.81;;;8.58;100.00
65756;BME280;52489;47.502;18.940;2022-11-02T01:17:35;98710.63;;;8.62;100.00
65756;BME280;52489;47.502;18.940;2022-11-02T01:18:38;98710.34;;;8.69;100.00
65756;BME280;52489;47.502;18.940;2022-11-02T01:19:41;98709.84;;;8.67;100.00
65756;BME280;52489;47.502;18.940;2022-11-02T01:20:44;98704.56;;;8.72;100.00
65756;BME280;52489;47.502;18.940;2022-11-02T01:21:47;98712.41;;;8.72;100.00
65756;BME280;52489;47.502;18.940;2022-11-02T01:22:50;98706.16;;;8.73;100.00
65756;BME280;52489;47.502;18.940;2022-11-02T01:23:54;98700.16;;;8.73;100.00
65756;BME280;52489;47.502;18.940;2022-11-02T01:24:57;98695.41;;;8.80;100.00
65756;BME280;52489;47.502;18.940;2022-11-02T01:26:05;98690.22;;;8.75;100.00
65756;BME280;52489;47.502;18.940;2022-11-02T01:27:08;98695.69;;;8.78;100.00
65756;BME280;52489;47.502;18.940;2022-11-02T01:28:11;98701.12;;;8.87;100.00
65756;BME280;52489;47.502;18.940;2022-11-02T01:29:13;98696.13;;;8.96;100.00
65756;BME280;52489;47.502;18.940;2022-11-02T01:30:16;98689.63;;;8.93;100.00
65756;BME280;52489;47.502;18.940;2022-11-02T01:31:19;98687.81;;;8.88;100.00
65756;BME280;52489;47.502;18.940;2022-11-02T01:32:22;98687.53;;;8.95;100.00
65756;BME280;52489;47.502;18.940;2022-11-02T01:33:26;98689.34;;;9.00;100.00
65756;BME280;52489;47.502;18.940;2022-11-02T01:34:29;98689.06;;;9.01;100.00
65756;BME280;52489;47.502;18.940;2022-11-02T01:35:32;98686.97;;;9.03;100.00
65756;BME280;52489;47.502;18.940;2022-11-02T01:36:35;98682.50;;;9.09;100.00
65756;BME280;52489;47.502;18.940;2022-11-02T01:37:38;98687.72;;;9.14;100.00
65756;BME280;52489;47.502;18.940;2022-11-02T01:38:41;98695.81;;;9.13;100.00
65756;BME280;52489;47.502;18.940;2022-11-02T01:39:43;98699.50;;;9.01;100.00
65756;BME280;52489;47.502;18.940;2022-11-02T01:40:46;98697.94;;;9.05;100.00
65756;BME280;52489;47.502;18.940;2022-11-02T01:41:50;98697.16;;;9.05;100.00
65756;BME280;52489;47.502;18.940;2022-11-02T01:42:54;98700.03;;;9.03;100.00
65756;BME280;52489;47.502;18.940;2022-11-02T01:43:57;98703.72;;;8.97;100.00
65756;BME280;52489;47.502;18.940;2022-11-02T01:45:04;98697.87;;;9.21;100.00
65756;BME280;52489;47.502;18.940;2022-11-02T01:46:20;98696.56;;;9.18;100.00
65756;BME280;52489;47.502;18.940;2022-11-02T01:47:35;98689.25;;;9.20;100.00
65756;BME280;52489;47.502;18.940;2022-11-02T01:48:43;98692.94;;;9.14;100.00
65756;BME280;52489;47.502;18.940;2022-11-02T01:49:56;98690.34;;;9.14;100.00
65756;BME280;52489;47.502;18.940;2022-11-02T01:51:02;98687.97;;;9.13;100.00
65756;BME280;52489;47.502;18.940;2022-11-02T01:52:09;98691.59;;;9.22;100.00
65756;BME280;52489;47.502;18.940;2022-11-02T01:53:13;98702.81;;;9.22;100.00
65756;BME280;52489;47.502;18.940;2022-11-02T01:54:19;98699.66;;;9.25;100.00
65756;BME280;52489;47.502;18.940;2022-11-02T01:55:27;98686.88;;;9.24;100.00
65756;BME280;52489;47.502;18.940;2022-11-02T01:56:32;98697.87;;;9.21;100.00
65756;BME280;52489;47.502;18.940;2022-11-02T01:57:38;98699.50;;;9.11;100.00
65756;BME280;52489;47.502;18.940;2022-11-02T01:58:44;98702.34;;;9.10;100.00
65756;BME280;52489;47.502;18.940;2022-11-02T02:00:05;98701.06;;;9.07;100.00
65756;BME280;52489;47.502;18.940;2022-11-02T02:01:09;98695.25;;;9.21;100.00
65756;BME280;52489;47.502;18.940;2022-11-02T02:02:21;98683.75;;;9.17;100.00
65756;BME280;52489;47.502;18.940;2022-11-02T02:03:26;98692.66;;;9.16;100.00
65756;BME280;52489;47.502;18.940;2022-11-02T02:04:32;98689.53;;;9.14;100.00
65756;BME280;52489;47.502;18.940;2022-11-02T02:05:41;98692.97;;;9.09;100.00
65756;BME280;52489;47.502;18.940;2022-11-02T02:06:45;98688.00;;;9.07;100.00
65756;BME280;52489;47.502;18.940;2022-11-02T02:07:48;98687.44;;;9.16;100.00
65756;BME280;52489;47.502;18.940;2022-11-02T02:08:52;98694.75;;;9.14;100.00
65756;BME280;52489;47.502;18.940;2022-11-02T02:09:57;98687.66;;;9.19;100.00
65756;BME280;52489;47.502;18.940;2022-11-02T02:11:00;98690.72;;;9.37;100.00
65756;BME280;52489;47.502;18.940;2022-11-02T02:12:04;98690.50;;;9.28;100.00
65756;BME280;52489;47.502;18.940;2022-11-02T02:13:07;98692.81;;;9.34;100.00
65756;BME280;52489;47.502;18.940;2022-11-02T02:14:13;98685.28;;;9.28;100.00
65756;BME280;52489;47.502;18.940;2022-11-02T02:15:17;98695.19;;;9.31;100.00
65756;BME280;52489;47.502;18.940;2022-11-02T02:17:00;98692.88;;;9.29;100.00
65756;BME280;52489;47.502;18.940;2022-11-02T02:18:23;98693.13;;;9.23;100.00
65756;BME280;52489;47.502;18.940;2022-11-02T02:19:54;98687.12;;;9.22;100.00
65756;BME280;52489;47.502;18.940;2022-11-02T02:21:04;98686.56;;;9.36;100.00
65756;BME280;52489;47.502;18.940;2022-11-02T02:29:10;98700.03;;;9.08;100.00
65756;BME280;52489;47.502;18.940;2022-11-02T02:30:17;98694.84;;;8.93;100.00
65756;BME280;52489;47.502;18.940;2022-11-02T02:34:14;98686.12;;;9.13;100.00
65756;BME280;52489;47.502;18.940;2022-11-02T02:35:25;98694.44;;;9.25;100.00
65756;BME280;52489;47.502;18.940;2022-11-02T02:36:35;98703.66;;;9.07;100.00
65756;BME280;52489;47.502;18.940;2022-11-02T02:37:54;98697.13;;;9.15;100.00
65756;BME280;52489;47.502;18.940;2022-11-02T02:39:04;98695.03;;;9.17;100.00
65756;BME280;52489;47.502;18.940;2022-11-02T02:40:19;98704.13;;;9.20;100.00
65756;BME280;52489;47.502;18.940;2022-11-02T02:41:30;98703.66;;;9.07;100.00
65756;BME280;52489;47.502;18.940;2022-11-02T02:42:40;98713.87;;;9.04;100.00
65756;BME280;52489;47.502;18.940;2022-11-02T02:43:49;98718.78;;;9.21;100.00
65756;BME280;52489;47.502;18.940;2022-11-02T02:46:32;98713.50;;;9.31;100.00
65756;BME280;52489;47.502;18.940;2022-11-02T02:47:50;98713.69;;;9.45;100.00
65756;BME280;52489;47.502;18.940;2022-11-02T02:48:56;98703.44;;;9.53;100.00
65756;BME280;52489;47.502;18.940;2022-11-02T02:50:10;98700.41;;;9.36;100.00
65756;BME280;52489;47.502;18.940;2022-11-02T02:51:19;98707.22;;;9.32;100.00
65756;BME280;52489;47.502;18.940;2022-11-02T02:52:25;98709.88;;;9.27;100.00
65756;BME280;52489;47.502;18.940;2022-11-02T02:53:49;98717.78;;;9.11;100.00
65756;BME280;52489;47.502;18.940;2022-11-02T02:54:57;98719.94;;;8.99;100.00
65756;BME280;52489;47.502;18.940;2022-11-02T02:56:03;98720.94;;;9.03;100.00
65756;BME280;52489;47.502;18.940;2022-11-02T02:57:12;98737.41;;;9.04;100.00
65756;BME280;52489;47.502;18.940;2022-11-02T02:58:23;98740.56;;;9.01;100.00
65756;BME280;52489;47.502;18.940;2022-11-02T02:59:45;98734.56;;;9.00;100.00
65756;BME280;52489;47.502;18.940;2022-11-02T03:00:51;98734.00;;;9.08;100.00
65756;BME280;52489;47.502;18.940;2022-11-02T03:01:55;98743.16;;;9.11;100.00
65756;BME280;52489;47.502;18.940;2022-11-02T03:02:59;98745.19;;;9.19;100.00
65756;BME280;52489;47.502;18.940;2022-11-02T03:04:04;98728.94;;;9.32;100.00
65756;BME280;52489;47.502;18.940;2022-11-02T03:05:39;98740.97;;;9.28;100.00
65756;BME280;52489;47.502;18.940;2022-11-02T03:06:53;98734.91;;;9.38;100.00
65756;BME280;52489;47.502;18.940;2022-11-02T03:08:04;98749.38;;;9.15;100.00
65756;BME280;52489;47.502;18.940;2022-11-02T03:10:34;98746.53;;;9.06;100.00
65756;BME280;52489;47.502;18.940;2022-11-02T03:13:15;98755.69;;;9.09;100.00
65756;BME280;52489;47.502;18.940;2022-11-02T03:17:17;98764.25;;;9.20;100.00
65756;BME280;52489;47.502;18.940;2022-11-02T03:18:47;98761.75;;;8.99;100.00
65756;BME280;52489;47.502;18.940;2022-11-02T03:22:30;98767.38;;;9.32;100.00
65756;BME280;52489;47.502;18.940;2022-11-02T03:23:40;98764.25;;;9.20;100.00
65756;BME280;52489;47.502;18.940;2022-11-02T03:25:08;98757.47;;;9.24;100.00
65756;BME280;52489;47.502;18.940;2022-11-02T03:26:13;98756.94;;;9.17;100.00
65756;BME280;52489;47.502;18.940;2022-11-02T03:27:44;98764.00;;;9.16;100.00
65756;BME280;52489;47.502;18.940;2022-11-02T03:29:10;98764.06;;;9.11;100.00
65756;BME280;52489;47.502;18.940;2022-11-02T03:30:18;98769.53;;;9.04;100.00
65756;BME280;52489;47.502;18.940;2022-11-02T03:32:31;98770.06;;;9.01;100.00
65756;BME280;52489;47.502;18.940;2022-11-02T03:33:46;98771.38;;;9.04;100.00
65756;BME280;52489;47.502;18.940;2022-11-02T03:34:58;98774.22;;;9.18;100.00
65756;BME280;52489;47.502;18.940;2022-11-02T03:36:05;98769.47;;;9.25;100.00
65756;BME280;52489;47.502;18.940;2022-11-02T03:37:21;98770.81;;;9.17;100.00
65756;BME280;52489;47.502;18.940;2022-11-02T03:38:49;98774.22;;;9.18;100.00
65756;BME280;52489;47.502;18.940;2022-11-02T03:39:57;98769.19;;;9.31;100.00
65756;BME280;52489;47.502;18.940;2022-11-02T03:41:05;98767.69;;;9.20;100.00
65756;BME280;52489;47.502;18.940;2022-11-02T03:42:13;98764.06;;;9.06;100.00
65756;BME280;52489;47.502;18.940;2022-11-02T03:43:19;98759.91;;;8.95;100.00
65756;BME280;52489;47.502;18.940;2022-11-02T03:44:24;98767.75;;;9.00;100.00
65756;BME280;52489;47.502;18.940;2022-11-02T03:45:36;98760.69;;;9.00;100.00
65756;BME280;52489;47.502;18.940;2022-11-02T03:46:42;98758.06;;;8.95;100.00
65756;BME280;52489;47.502;18.940;2022-11-02T03:47:51;98760.44;;;8.97;100.00
65756;BME280;52489;47.502;18.940;2022-11-02T03:48:56;98759.66;;;8.96;100.00
65756;BME280;52489;47.502;18.940;2022-11-02T03:49:59;98754.16;;;9.03;100.00
65756;BME280;52489;47.502;18.940;2022-11-02T03:51:07;98758.84;;;9.06;100.00
65756;BME280;52489;47.502;18.940;2022-11-02T03:52:17;98757.03;;;8.96;100.00
65756;BME280;52489;47.502;18.940;2022-11-02T03:53:29;98754.69;;;8.95;100.00
65756;BME280;52489;47.502;18.940;2022-11-02T03:54:48;98752.59;;;8.92;100.00
65756;BME280;52489;47.502;18.940;2022-11-02T03:56:10;98745.81;;;8.85;100.00
65756;BME280;52489;47.502;18.940;2022-11-02T03:57:27;98737.22;;;8.85;100.00
65756;BME280;52489;47.502;18.940;2022-11-02T03:58:32;98727.53;;;8.91;100.00
65756;BME280;52489;47.502;18.940;2022-11-02T03:59:35;98733.25;;;8.93;100.00
65756;BME280;52489;47.502;18.940;2022-11-02T04:00:46;98736.63;;;8.98;100.00
65756;BME280;52489;47.502;18.940;2022-11-02T04:01:51;98737.38;;;9.09;100.00
65756;BME280;52489;47.502;18.940;2022-11-02T04:02:57;98739.72;;;9.10;100.00
65756;BME280;52489;47.502;18.940;2022-11-02T04:04:03;98736.09;;;9.11;100.00
65756;BME280;52489;47.502;18.940;2022-11-02T04:05:06;98739.72;;;9.16;100.00
65756;BME280;52489;47.502;18.940;2022-11-02T04:06:09;98745.69;;;9.21;100.00
65756;BME280;52489;47.502;18.940;2022-11-02T04:07:17;98741.53;;;9.20;100.00
65756;BME280;52489;47.502;18.940;2022-11-02T04:08:33;98750.41;;;9.24;100.00
65756;BME280;52489;47.502;18.940;2022-11-02T04:09:37;98749.84;;;9.27;100.00
65756;BME280;52489;47.502;18.940;2022-11-02T04:10:40;98763.41;;;9.34;100.00
65756;BME280;52489;47.502;18.940;2022-11-02T04:12:03;98763.16;;;9.36;100.00
65756;BME280;52489;47.502;18.940;2022-11-02T04:13:24;98763.41;;;9.40;100.00
65756;BME280;52489;47.502;18.940;2022-11-02T04:14:46;98767.53;;;9.46;100.00
65756;BME280;52489;47.502;18.940;2022-11-02T04:15:50;98766.75;;;9.50;100.00
65756;BME280;52489;47.502;18.940;2022-11-02T04:16:53;98762.31;;;9.46;100.00
65756;BME280;52489;47.502;18.940;2022-11-02T04:18:16;98762.59;;;9.44;100.00
65756;BME280;52489;47.502;18.940;2022-11-02T04:19:37;98775.44;;;9.41;100.00
65756;BME280;52489;47.502;18.940;2022-11-02T04:20:40;98772.28;;;9.44;100.00
65756;BME280;52489;47.502;18.940;2022-11-02T04:21:43;98776.16;;;9.51;100.00
65756;BME280;52489;47.502;18.940;2022-11-02T04:23:06;98777.94;;;9.61;100.00
65756;BME280;52489;47.502;18.940;2022-11-02T04:24:28;98784.75;;;9.57;100.00
65756;BME280;52489;47.502;18.940;2022-11-02T04:25:53;98788.22;;;9.47;100.00
65756;BME280;52489;47.502;18.940;2022-11-02T04:26:56;98782.59;;;9.69;100.00
65756;BME280;52489;47.502;18.940;2022-11-02T04:28:06;98789.16;;;9.67;100.00
65756;BME280;52489;47.502;18.940;2022-11-02T04:29:09;98795.75;;;9.59;100.00
65756;BME280;52489;47.502;18.940;2022-11-02T04:30:14;98792.84;;;9.61;100.00
65756;BME280;52489;47.502;18.940;2022-11-02T04:31:18;98789.97;;;9.62;100.00
65756;BME280;52489;47.502;18.940;2022-11-02T04:32:21;98793.91;;;9.60;100.00
65756;BME280;52489;47.502;18.940;2022-11-02T04:33:42;98797.94;;;9.86;100.00
65756;BME280;52489;47.502;18.940;2022-11-02T04:34:45;98801.09;;;9.88;100.00
65756;BME280;52489;47.502;18.940;2022-11-02T04:35:48;98796.97;;;9.72;100.00
65756;BME280;52489;47.502;18.940;2022-11-02T04:36:50;98795.66;;;9.74;100.00
65756;BME280;52489;47.502;18.940;2022-11-02T04:37:54;98799.06;;;9.70;100.00
65756;BME280;52489;47.502;18.940;2022-11-02T04:39:15;98795.97;;;9.63;100.00
65756;BME280;52489;47.502;18.940;2022-11-02T04:40:18;98790.78;;;9.57;100.00
65756;BME280;52489;47.502;18.940;2022-11-02T04:41:22;98798.06;;;9.66;100.00
65756;BME280;52489;47.502;18.940;2022-11-02T04:42:46;98797.81;;;9.67;100.00
65756;BME280;52489;47.502;18.940;2022-11-02T04:43:49;98803.22;;;9.76;100.00
65756;BME280;52489;47.502;18.940;2022-11-02T04:44:52;98802.97;;;9.77;100.00
65756;BME280;52489;47.502;18.940;2022-11-02T04:45:57;98799.56;;;9.82;100.00
65756;BME280;52489;47.502;18.940;2022-11-02T04:47:00;98800.31;;;9.83;100.00
65756;BME280;52489;47.502;18.940;2022-11-02T04:48:05;98798.53;;;9.73;100.00
65756;BME280;52489;47.502;18.940;2022-11-02T04:49:10;98800.66;;;9.71;100.00
65756;BME280;52489;47.502;18.940;2022-11-02T04:50:14;98802.50;;;9.70;100.00
65756;BME280;52489;47.502;18.940;2022-11-02T04:51:17;98805.16;;;9.60;100.00
65756;BME280;52489;47.502;18.940;2022-11-02T04:52:24;98810.06;;;9.67;100.00
65756;BME280;52489;47.502;18.940;2022-11-02T04:53:27;98804.06;;;9.71;100.00
65756;BME280;52489;47.502;18.940;2022-11-02T04:54:29;98806.09;;;9.79;100.00
65756;BME280;52489;47.502;18.940;2022-11-02T04:55:32;98801.91;;;9.78;100.00
65756;BME280;52489;47.502;18.940;2022-11-02T04:56:36;98807.13;;;9.78;100.00
65756;BME280;52489;47.502;18.940;2022-11-02T04:57:43;98792.75;;;9.76;100.00
65756;BME280;52489;47.502;18.940;2022-11-02T04:58:51;98804.03;;;9.76;100.00
65756;BME280;52489;47.502;18.940;2022-11-02T04:59:54;98813.69;;;9.76;100.00
65756;BME280;52489;47.502;18.940;2022-11-02T05:00:57;98815.78;;;9.79;100.00
65756;BME280;52489;47.502;18.940;2022-11-02T05:02:00;98796.59;;;9.94;100.00
65756;BME280;52489;47.502;18.940;2022-11-02T05:03:04;98805.03;;;9.86;100.00
65756;BME280;52489;47.502;18.940;2022-11-02T05:04:13;98811.56;;;9.83;100.00
65756;BME280;52489;47.502;18.940;2022-11-02T05:05:16;98819.19;;;9.79;100.00
65756;BME280;52489;47.502;18.940;2022-11-02T05:06:21;98812.34;;;9.84;100.00
65756;BME280;52489;47.502;18.940;2022-11-02T05:07:28;98816.81;;;9.83;100.00
65756;BME280;52489;47.502;18.940;2022-11-02T05:08:31;98810.75;;;9.88;100.00
65756;BME280;52489;47.502;18.940;2022-11-02T05:09:34;98798.47;;;9.88;100.00
65756;BME280;52489;47.502;18.940;2022-11-02T05:10:37;98808.09;;;9.93;100.00
65756;BME280;52489;47.502;18.940;2022-11-02T05:11:40;98805.03;;;9.80;100.00
65756;BME280;52489;47.502;18.940;2022-11-02T05:12:43;98809.81;;;9.68;100.00
65756;BME280;52489;47.502;18.940;2022-11-02T05:13:46;98810.88;;;9.67;100.00
65756;BME280;52489;47.502;18.940;2022-11-02T05:14:49;98802.72;;;9.74;100.00
65756;BME280;52489;47.502;18.940;2022-11-02T05:15:56;98799.28;;;9.84;100.00
65756;BME280;52489;47.502;18.940;2022-11-02T05:17:02;98795.03;;;9.93;100.00
65756;BME280;52489;47.502;18.940;2022-11-02T05:18:05;98790.34;;;9.85;100.00
65756;BME280;52489;47.502;18.940;2022-11-02T05:19:09;98799.03;;;9.80;100.00
65756;BME280;52489;47.502;18.940;2022-11-02T05:20:12;98798.50;;;9.78;100.00
65756;BME280;52489;47.502;18.940;2022-11-02T05:21:15;98797.97;;;9.81;100.00
65756;BME280;52489;47.502;18.940;2022-11-02T05:22:18;98802.66;;;9.84;100.00
65756;BME280;52489;47.502;18.940;2022-11-02T05:23:23;98801.62;;;9.85;100.00
65756;BME280;52489;47.502;18.940;2022-11-02T05:24:26;98803.69;;;9.88;100.00
65756;BME280;52489;47.502;18.940;2022-11-02T05:25:39;98806.31;;;9.88;100.00
65756;BME280;52489;47.502;18.940;2022-11-02T05:26:42;98806.56;;;9.92;100.00
65756;BME280;52489;47.502;18.940;2022-11-02T05:27:45;98806.25;;;9.98;100.00
65756;BME280;52489;47.502;18.940;2022-11-02T05:28:48;98810.69;;;9.98;100.00
65756;BME280;52489;47.502;18.940;2022-11-02T05:29:52;98815.09;;;10.08;100.00
65756;BME280;52489;47.502;18.940;2022-11-02T05:30:58;98801.97;;;10.13;100.00
65756;BME280;52489;47.502;18.940;2022-11-02T05:32:02;98812.69;;;10.11;100.00
65756;BME280;52489;47.502;18.940;2022-11-02T05:33:08;98809.59;;;10.09;100.00
65756;BME280;52489;47.502;18.940;2022-11-02T05:34:11;98815.84;;;10.08;100.00
65756;BME280;52489;47.502;18.940;2022-11-02T05:35:14;98815.09;;;10.08;100.00
65756;BME280;52489;47.502;18.940;2022-11-02T05:36:17;98809.59;;;10.09;100.00
65756;BME280;52489;47.502;18.940;2022-11-02T05:37:20;98806.13;;;10.14;100.00
65756;BME280;52489;47.502;18.940;2022-11-02T05:38:24;98810.59;;;10.13;100.00
65756;BME280;52489;47.502;18.940;2022-11-02T05:39:28;98806.91;;;10.14;100.00
65756;BME280;52489;47.502;18.940;2022-11-02T05:40:30;98807.19;;;10.18;100.00
65756;BME280;52489;47.502;18.940;2022-11-02T05:41:39;98807.94;;;10.18;100.00
65756;BME280;52489;47.502;18.940;2022-11-02T05:42:42;98800.06;;;10.23;100.00
65756;BME280;52489;47.502;18.940;2022-11-02T05:43:45;98805.50;;;10.32;100.00
65756;BME280;52489;47.502;18.940;2022-11-02T05:44:48;98794.78;;;10.29;100.00
65756;BME280;52489;47.502;18.940;2022-11-02T05:45:55;98801.34;;;10.26;100.00
65756;BME280;52489;47.502;18.940;2022-11-02T05:47:02;98812.34;;;10.28;100.00
65756;BME280;52489;47.502;18.940;2022-11-02T05:48:05;98806.53;;;10.36;100.00
65756;BME280;52489;47.502;18.940;2022-11-02T05:49:08;98808.62;;;10.34;100.00
65756;BME280;52489;47.502;18.940;2022-11-02T05:50:11;98807.81;;;10.39;100.00
65756;BME280;52489;47.502;18.940;2022-11-02T05:51:14;98805.47;;;10.37;100.00
65756;BME280;52489;47.502;18.940;2022-11-02T05:52:17;98802.31;;;10.40;100.00
65756;BME280;52489;47.502;18.940;2022-11-02T05:53:19;98804.66;;;10.42;100.00
65756;BME280;52489;47.502;18.940;2022-11-02T05:54:22;98809.06;;;10.46;100.00
65756;BME280;52489;47.502;18.940;2022-11-02T05:55:26;98792.75;;;10.55;100.00
65756;BME280;52489;47.502;18.940;2022-11-02T05:56:28;98787.25;;;10.56;100.00
65756;BME280;52489;47.502;18.940;2022-11-02T05:57:31;98793.72;;;10.64;100.00
65756;BME280;52489;47.502;18.940;2022-11-02T05:58:35;98791.28;;;10.73;100.00
65756;BME280;52489;47.502;18.940;2022-11-02T05:59:38;98792.56;;;10.75;100.00
65756;BME280;52489;47.502;18.940;2022-11-02T06:00:45;98794.81;;;10.87;100.00
65756;BME280;52489;47.502;18.940;2022-11-02T06:01:48;98790.75;;;11.00;100.00
65756;BME280;52489;47.502;18.940;2022-11-02T06:02:57;98787.00;;;11.06;100.00
65756;BME280;52489;47.502;18.940;2022-11-02T06:04:00;98793.62;;;11.03;100.00
65756;BME280;52489;47.502;18.940;2022-11-02T06:05:03;98793.06;;;11.06;100.00
65756;BME280;52489;47.502;18.940;2022-11-02T06:06:09;98790.03;;;11.18;100.00
65756;BME280;52489;47.502;18.940;2022-11-02T06:07:12;98797.09;;;11.18;100.00
65756;BME280;52489;47.502;18.940;2022-11-02T06:08:20;98794.47;;;11.18;100.00